sensor_id;sensor_type;location;lat;lon;timestamp;temperature;humidity
52565;DHT22;38460;53.106;7.004;2023-03-14T00:00:58;8.70;99.90
52565;DHT22;38460;53.106;7.004;2023-03-14T00:03:24;8.70;99.90
52565;DHT22;38460;53.106;7.004;2023-03-14T00:05:49;8.80;99.90
52565;DHT22;38460;53.106;7.004;2023-03-14T00:08:15;8.80;99.90
52565;DHT22;38460;53.106;7.004;2023-03-14T00:10:41;8.80;99.90
52565;DHT22;38460;53.106;7.004;2023-03-14T00:13:07;8.80;99.90
52565;DHT22;38460;53.106;7.004;2023-03-14T00:15:34;8.90;99.90
52565;DHT22;38460;53.106;7.004;2023-03-14T00:18:00;8.90;99.90
52565;DHT22;38460;53.106;7.004;2023-03-14T00:20:26;8.90;99.90
52565;DHT22;38460;53.106;7.004;2023-03-14T00:22:52;9.00;99.90
52565;DHT22;38460;53.106;7.004;2023-03-14T00:25:18;9.00;99.90
52565;DHT22;38460;53.106;7.004;2023-03-14T00:27:44;9.00;99.90
52565;DHT22;38460;53.106;7.004;2023-03-14T00:30:10;9.10;99.90
52565;DHT22;38460;53.106;7.004;2023-03-14T00:32:36;9.10;99.90
52565;DHT22;38460;53.106;7.004;2023-03-14T00:35:02;9.10;99.90
52565;DHT22;38460;53.106;7.004;2023-03-14T00:37:28;9.10;99.90
52565;DHT22;38460;53.106;7.004;2023-03-14T00:39:54;9.20;99.90
52565;DHT22;38460;53.106;7.004;2023-03-14T00:42:20;9.20;99.90
52565;DHT22;38460;53.106;7.004;2023-03-14T00:44:46;9.30;99.90
52565;DHT22;38460;53.106;7.004;2023-03-14T00:47:12;9.40;99.90
52565;DHT22;38460;53.106;7.004;2023-03-14T00:49:38;9.40;99.90
52565;DHT22;38460;53.106;7.004;2023-03-14T00:52:03;9.50;99.90
52565;DHT22;38460;53.106;7.004;2023-03-14T00:54:29;9.50;99.90
52565;DHT22;38460;53.106;7.004;2023-03-14T00:56:55;9.50;99.90
52565;DHT22;38460;53.106;7.004;2023-03-14T00:59:21;9.50;99.90
52565;DHT22;38460;53.106;7.004;2023-03-14T01:01:47;9.50;99.90
52565;DHT22;38460;53.106;7.004;2023-03-14T01:04:13;9.50;99.90
52565;DHT22;38460;53.106;7.004;2023-03-14T01:06:39;9.50;99.90
52565;DHT22;38460;53.106;7.004;2023-03-14T01:09:05;9.50;99.90
52565;DHT22;38460;53.106;7.004;2023-03-14T01:11:32;9.50;99.90
52565;DHT22;38460;53.106;7.004;2023-03-14T01:13:58;9.50;99.90
52565;DHT22;38460;53.106;7.004;2023-03-14T01:16:26;9.50;99.90
52565;DHT22;38460;53.106;7.004;2023-03-14T01:18:53;9.60;99.90
52565;DHT22;38460;53.106;7.004;2023-03-14T01:21:20;9.60;99.90
52565;DHT22;38460;53.106;7.004;2023-03-14T01:23:47;9.60;99.90
52565;DHT22;38460;53.106;7.004;2023-03-14T01:26:15;9.70;99.90
52565;DHT22;38460;53.106;7.004;2023-03-14T01:28:44;9.70;99.90
52565;DHT22;38460;53.106;7.004;2023-03-14T01:31:11;9.70;99.90
52565;DHT22;38460;53.106;7.004;2023-03-14T01:33:37;9.70;99.90
52565;DHT22;38460;53.106;7.004;2023-03-14T01:36:03;9.70;99.90
52565;DHT22;38460;53.106;7.004;2023-03-14T01:38:30;9.70;99.90
52565;DHT22;38460;53.106;7.004;2023-03-14T01:40:57;9.70;99.90
52565;DHT22;38460;53.106;7.004;2023-03-14T01:43:23;9.70;99.90
52565;DHT22;38460;53.106;7.004;2023-03-14T01:48:40;9.70;99.90
52565;DHT22;38460;53.106;7.004;2023-03-14T01:51:10;9.70;99.90
52565;DHT22;38460;53.106;7.004;2023-03-14T01:53:37;9.70;99.90
52565;DHT22;38460;53.106;7.004;2023-03-14T01:56:05;9.80;99.90
52565;DHT22;38460;53.106;7.004;2023-03-14T01:58:33;9.80;99.90
52565;DHT22;38460;53.106;7.004;2023-03-14T02:01:03;9.80;99.90
52565;DHT22;38460;53.106;7.004;2023-03-14T02:03:31;9.80;99.90
52565;DHT22;38460;53.106;7.004;2023-03-14T02:06:04;9.80;99.90
52565;DHT22;38460;53.106;7.004;2023-03-14T02:08:31;9.90;99.90
52565;DHT22;38460;53.106;7.004;2023-03-14T02:10:58;9.90;99.90
52565;DHT22;38460;53.106;7.004;2023-03-14T02:13:24;9.90;99.90
52565;DHT22;38460;53.106;7.004;2023-03-14T02:15:50;9.90;99.90
52565;DHT22;38460;53.106;7.004;2023-03-14T02:18:17;9.90;99.90
52565;DHT22;38460;53.106;7.004;2023-03-14T02:20:56;9.90;99.90
52565;DHT22;38460;53.106;7.004;2023-03-14T02:23:51;9.90;99.90
52565;DHT22;38460;53.106;7.004;2023-03-14T02:26:31;9.90;99.90
52565;DHT22;38460;53.106;7.004;2023-03-14T02:29:00;9.90;99.90
52565;DHT22;38460;53.106;7.004;2023-03-14T02:31:25;9.90;99.90
52565;DHT22;38460;53.106;7.004;2023-03-14T02:33:52;9.90;99.90
52565;DHT22;38460;53.106;7.004;2023-03-14T02:36:18;9.90;99.90
52565;DHT22;38460;53.106;7.004;2023-03-14T02:39:11;9.90;99.90
52565;DHT22;38460;53.106;7.004;2023-03-14T02:41:39;9.90;99.90
52565;DHT22;38460;53.106;7.004;2023-03-14T02:44:05;9.90;99.90
52565;DHT22;38460;53.106;7.004;2023-03-14T02:46:31;9.90;99.90
52565;DHT22;38460;53.106;7.004;2023-03-14T02:49:02;9.90;99.90
52565;DHT22;38460;53.106;7.004;2023-03-14T02:51:29;9.90;99.90
52565;DHT22;38460;53.106;7.004;2023-03-14T02:53:55;9.90;99.90
52565;DHT22;38460;53.106;7.004;2023-03-14T02:56:21;9.90;99.90
52565;DHT22;38460;53.106;7.004;2023-03-14T02:58:46;9.90;99.90
52565;DHT22;38460;53.106;7.004;2023-03-14T03:01:12;9.90;99.90
52565;DHT22;38460;53.106;7.004;2023-03-14T03:03:38;9.80;99.90
52565;DHT22;38460;53.106;7.004;2023-03-14T03:06:04;9.80;99.90
52565;DHT22;38460;53.106;7.004;2023-03-14T03:08:30;9.80;99.90
52565;DHT22;38460;53.106;7.004;2023-03-14T03:10:57;9.80;99.90
52565;DHT22;38460;53.106;7.004;2023-03-14T03:13:23;9.80;99.90
52565;DHT22;38460;53.106;7.004;2023-03-14T03:15:49;9.80;99.90
52565;DHT22;38460;53.106;7.004;2023-03-14T03:18:15;9.80;99.90
52565;DHT22;38460;53.106;7.004;2023-03-14T03:20:41;9.80;99.90
52565;DHT22;38460;53.106;7.004;2023-03-14T03:23:06;9.80;99.90
52565;DHT22;38460;53.106;7.004;2023-03-14T03:25:32;9.80;99.90
52565;DHT22;38460;53.106;7.004;2023-03-14T03:27:58;9.70;99.90
52565;DHT22;38460;53.106;7.004;2023-03-14T03:30:24;9.70;99.90
52565;DHT22;38460;53.106;7.004;2023-03-14T03:32:49;9.70;99.90
52565;DHT22;38460;53.106;7.004;2023-03-14T03:35:15;9.70;99.90
52565;DHT22;38460;53.106;7.004;2023-03-14T03:37:41;9.70;99.90
52565;DHT22;38460;53.106;7.004;2023-03-14T03:40:08;9.70;99.90
52565;DHT22;38460;53.106;7.004;2023-03-14T03:42:35;9.70;99.90
52565;DHT22;38460;53.106;7.004;2023-03-14T03:45:01;9.70;99.90
52565;DHT22;38460;53.106;7.004;2023-03-14T03:47:27;9.70;99.90
52565;DHT22;38460;53.106;7.004;2023-03-14T03:49:53;9.70;99.90
52565;DHT22;38460;53.106;7.004;2023-03-14T03:52:19;9.70;99.90
52565;DHT22;38460;53.106;7.004;2023-03-14T03:54:46;9.70;99.90
52565;DHT22;38460;53.106;7.004;2023-03-14T03:57:12;9.70;99.90
52565;DHT22;38460;53.106;7.004;2023-03-14T03:59:38;9.70;99.90
52565;DHT22;38460;53.106;7.004;2023-03-14T04:02:05;9.60;99.90
52565;DHT22;38460;53.106;7.004;2023-03-14T04:04:31;9.60;99.90
52565;DHT22;38460;53.106;7.004;2023-03-14T04:06:57;9.60;99.90
52565;DHT22;38460;53.106;7.004;2023-03-14T04:09:22;9.60;99.90
52565;DHT22;38460;53.106;7.004;2023-03-14T04:11:48;9.60;99.90
52565;DHT22;38460;53.106;7.004;2023-03-14T04:14:14;9.60;99.90
52565;DHT22;38460;53.106;7.004;2023-03-14T04:16:40;9.50;99.90
52565;DHT22;38460;53.106;7.004;2023-03-14T04:19:06;9.50;99.90
52565;DHT22;38460;53.106;7.004;2023-03-14T04:21:31;9.50;99.90
52565;DHT22;38460;53.106;7.004;2023-03-14T04:23:57;9.50;99.90
52565;DHT22;38460;53.106;7.004;2023-03-14T04:26:23;9.50;99.90
52565;DHT22;38460;53.106;7.004;2023-03-14T04:28:49;9.50;99.90
52565;DHT22;38460;53.106;7.004;2023-03-14T04:31:17;9.50;99.90
52565;DHT22;38460;53.106;7.004;2023-03-14T04:33:44;9.40;99.90
52565;DHT22;38460;53.106;7.004;2023-03-14T04:36:10;9.40;99.90
52565;DHT22;38460;53.106;7.004;2023-03-14T04:38:36;9.40;99.90
52565;DHT22;38460;53.106;7.004;2023-03-14T04:41:02;9.30;99.90
52565;DHT22;38460;53.106;7.004;2023-03-14T04:43:28;9.30;99.90
52565;DHT22;38460;53.106;7.004;2023-03-14T04:45:55;9.30;99.90
52565;DHT22;38460;53.106;7.004;2023-03-14T04:48:21;9.30;99.90
52565;DHT22;38460;53.106;7.004;2023-03-14T04:50:48;9.20;99.90
52565;DHT22;38460;53.106;7.004;2023-03-14T04:53:15;9.20;99.90
52565;DHT22;38460;53.106;7.004;2023-03-14T04:55:40;9.10;99.90
52565;DHT22;38460;53.106;7.004;2023-03-14T04:58:06;9.10;99.90
52565;DHT22;38460;53.106;7.004;2023-03-14T05:00:32;9.10;99.90
52565;DHT22;38460;53.106;7.004;2023-03-14T05:02:58;9.80;99.90
52565;DHT22;38460;53.106;7.004;2023-03-14T05:05:24;9.10;99.90
52565;DHT22;38460;53.106;7.004;2023-03-14T05:07:50;9.10;99.90
52565;DHT22;38460;53.106;7.004;2023-03-14T05:10:16;9.10;99.90
52565;DHT22;38460;53.106;7.004;2023-03-14T05:12:42;9.10;99.90
52565;DHT22;38460;53.106;7.004;2023-03-14T05:15:08;9.00;99.90
52565;DHT22;38460;53.106;7.004;2023-03-14T05:17:34;9.10;99.90
52565;DHT22;38460;53.106;7.004;2023-03-14T05:20:00;9.00;99.90
52565;DHT22;38460;53.106;7.004;2023-03-14T05:22:26;9.10;99.90
52565;DHT22;38460;53.106;7.004;2023-03-14T05:24:52;9.00;99.90
52565;DHT22;38460;53.106;7.004;2023-03-14T05:27:22;9.00;99.90
52565;DHT22;38460;53.106;7.004;2023-03-14T05:29:48;9.00;99.90
52565;DHT22;38460;53.106;7.004;2023-03-14T05:32:14;9.00;99.90
52565;DHT22;38460;53.106;7.004;2023-03-14T05:34:39;9.00;99.90
52565;DHT22;38460;53.106;7.004;2023-03-14T05:37:05;9.00;99.90
52565;DHT22;38460;53.106;7.004;2023-03-14T05:39:31;9.00;99.90
52565;DHT22;38460;53.106;7.004;2023-03-14T05:41:56;9.00;99.90
52565;DHT22;38460;53.106;7.004;2023-03-14T05:44:22;8.90;99.90
52565;DHT22;38460;53.106;7.004;2023-03-14T05:46:48;8.90;99.90
52565;DHT22;38460;53.106;7.004;2023-03-14T05:49:14;8.90;99.90
52565;DHT22;38460;53.106;7.004;2023-03-14T05:51:39;8.90;99.90
52565;DHT22;38460;53.106;7.004;2023-03-14T05:54:05;8.80;99.90
52565;DHT22;38460;53.106;7.004;2023-03-14T05:56:31;8.80;99.90
52565;DHT22;38460;53.106;7.004;2023-03-14T05:58:57;8.80;99.90
52565;DHT22;38460;53.106;7.004;2023-03-14T06:01:23;8.80;99.90
52565;DHT22;38460;53.106;7.004;2023-03-14T06:03:49;8.80;99.90
52565;DHT22;38460;53.106;7.004;2023-03-14T06:06:14;8.80;99.90
52565;DHT22;38460;53.106;7.004;2023-03-14T06:08:42;8.80;99.90
52565;DHT22;38460;53.106;7.004;2023-03-14T06:11:07;8.80;99.90
52565;DHT22;38460;53.106;7.004;2023-03-14T06:13:34;8.70;99.90
52565;DHT22;38460;53.106;7.004;2023-03-14T06:16:00;8.70;99.90
52565;DHT22;38460;53.106;7.004;2023-03-14T06:18:26;8.70;99.90
52565;DHT22;38460;53.106;7.004;2023-03-14T06:20:55;8.70;99.90
52565;DHT22;38460;53.106;7.004;2023-03-14T06:23:21;8.70;99.90
52565;DHT22;38460;53.106;7.004;2023-03-14T06:25:47;8.70;99.90
52565;DHT22;38460;53.106;7.004;2023-03-14T06:28:13;8.70;99.90
52565;DHT22;38460;53.106;7.004;2023-03-14T06:30:38;8.70;99.90
52565;DHT22;38460;53.106;7.004;2023-03-14T06:33:04;8.70;99.90
52565;DHT22;38460;53.106;7.004;2023-03-14T06:35:30;8.60;99.90
52565;DHT22;38460;53.106;7.004;2023-03-14T06:37:56;8.70;99.90
52565;DHT22;38460;53.106;7.004;2023-03-14T06:40:22;8.70;99.90
52565;DHT22;38460;53.106;7.004;2023-03-14T06:42:47;8.70;99.90
52565;DHT22;38460;53.106;7.004;2023-03-14T06:45:14;8.70;99.90
52565;DHT22;38460;53.106;7.004;2023-03-14T06:47:40;8.70;99.90
52565;DHT22;38460;53.106;7.004;2023-03-14T06:50:06;8.70;99.90
52565;DHT22;38460;53.106;7.004;2023-03-14T06:52:33;8.70;99.90
52565;DHT22;38460;53.106;7.004;2023-03-14T06:55:00;8.70;99.90
52565;DHT22;38460;53.106;7.004;2023-03-14T06:57:29;8.70;99.90
52565;DHT22;38460;53.106;7.004;2023-03-14T06:59:55;8.70;99.90
52565;DHT22;38460;53.106;7.004;2023-03-14T07:02:20;8.70;99.90
52565;DHT22;38460;53.106;7.004;2023-03-14T07:04:47;8.70;99.90
52565;DHT22;38460;53.106;7.004;2023-03-14T07:07:13;8.70;99.90
52565;DHT22;38460;53.106;7.004;2023-03-14T07:09:38;8.70;99.90
52565;DHT22;38460;53.106;7.004;2023-03-14T07:12:05;8.60;99.90
52565;DHT22;38460;53.106;7.004;2023-03-14T07:14:31;8.60;99.90
52565;DHT22;38460;53.106;7.004;2023-03-14T07:16:57;8.40;99.90
52565;DHT22;38460;53.106;7.004;2023-03-14T07:19:22;8.20;99.90
52565;DHT22;38460;53.106;7.004;2023-03-14T07:21:48;8.00;99.90
52565;DHT22;38460;53.106;7.004;2023-03-14T07:24:14;7.90;99.90
52565;DHT22;38460;53.106;7.004;2023-03-14T07:26:40;7.70;99.90
52565;DHT22;38460;53.106;7.004;2023-03-14T07:29:05;7.60;99.90
52565;DHT22;38460;53.106;7.004;2023-03-14T07:31:31;7.40;99.90
52565;DHT22;38460;53.106;7.004;2023-03-14T07:33:57;7.20;99.90
52565;DHT22;38460;53.106;7.004;2023-03-14T07:36:23;7.00;99.90
52565;DHT22;38460;53.106;7.004;2023-03-14T07:38:48;6.90;99.90
52565;DHT22;38460;53.106;7.004;2023-03-14T07:41:14;6.70;99.90
52565;DHT22;38460;53.106;7.004;2023-03-14T07:43:41;6.40;99.90
52565;DHT22;38460;53.106;7.004;2023-03-14T07:46:07;6.30;99.90
52565;DHT22;38460;53.106;7.004;2023-03-14T07:48:33;6.10;99.90
52565;DHT22;38460;53.106;7.004;2023-03-14T07:50:59;5.90;99.90
52565;DHT22;38460;53.106;7.004;2023-03-14T07:53:25;5.60;99.90
52565;DHT22;38460;53.106;7.004;2023-03-14T07:55:52;5.40;99.90
52565;DHT22;38460;53.106;7.004;2023-03-14T07:58:19;5.20;99.90
52565;DHT22;38460;53.106;7.004;2023-03-14T08:00:45;5.10;99.90
52565;DHT22;38460;53.106;7.004;2023-03-14T08:03:10;4.90;99.90
52565;DHT22;38460;53.106;7.004;2023-03-14T08:05:37;4.70;99.90
52565;DHT22;38460;53.106;7.004;2023-03-14T08:08:04;4.50;99.90
52565;DHT22;38460;53.106;7.004;2023-03-14T08:10:30;4.50;99.90
52565;DHT22;38460;53.106;7.004;2023-03-14T08:12:57;4.30;99.90
52565;DHT22;38460;53.106;7.004;2023-03-14T08:15:24;4.20;99.90
52565;DHT22;38460;53.106;7.004;2023-03-14T08:17:50;4.20;99.90
52565;DHT22;38460;53.106;7.004;2023-03-14T08:20:18;4.10;99.90
52565;DHT22;38460;53.106;7.004;2023-03-14T08:22:44;4.00;99.90
52565;DHT22;38460;53.106;7.004;2023-03-14T08:25:10;4.00;99.90
52565;DHT22;38460;53.106;7.004;2023-03-14T08:27:36;4.00;99.90
52565;DHT22;38460;53.106;7.004;2023-03-14T08:30:05;4.00;99.90
52565;DHT22;38460;53.106;7.004;2023-03-14T08:32:31;4.00;99.90
52565;DHT22;38460;53.106;7.004;2023-03-14T08:34:57;4.00;99.90
52565;DHT22;38460;53.106;7.004;2023-03-14T08:37:23;4.00;99.90
52565;DHT22;38460;53.106;7.004;2023-03-14T08:39:51;4.10;99.90
52565;DHT22;38460;53.106;7.004;2023-03-14T08:42:17;4.10;99.90
52565;DHT22;38460;53.106;7.004;2023-03-14T08:44:43;4.10;99.90
52565;DHT22;38460;53.106;7.004;2023-03-14T08:47:09;4.20;99.90
52565;DHT22;38460;53.106;7.004;2023-03-14T08:49:35;4.20;99.90
52565;DHT22;38460;53.106;7.004;2023-03-14T08:52:04;4.20;99.90
52565;DHT22;38460;53.106;7.004;2023-03-14T08:54:30;4.30;99.90
52565;DHT22;38460;53.106;7.004;2023-03-14T08:56:57;4.30;99.90
52565;DHT22;38460;53.106;7.004;2023-03-14T08:59:23;4.20;99.90
52565;DHT22;38460;53.106;7.004;2023-03-14T09:01:49;4.30;99.90
52565;DHT22;38460;53.106;7.004;2023-03-14T09:04:15;4.40;99.90
52565;DHT22;38460;53.106;7.004;2023-03-14T09:06:41;4.40;99.90
52565;DHT22;38460;53.106;7.004;2023-03-14T09:09:07;4.40;99.90
52565;DHT22;38460;53.106;7.004;2023-03-14T09:11:33;4.50;99.90
52565;DHT22;38460;53.106;7.004;2023-03-14T09:13:59;4.50;99.90
52565;DHT22;38460;53.106;7.004;2023-03-14T09:16:25;4.50;99.90
52565;DHT22;38460;53.106;7.004;2023-03-14T09:18:51;4.50;99.90
52565;DHT22;38460;53.106;7.004;2023-03-14T09:21:20;4.50;99.90
52565;DHT22;38460;53.106;7.004;2023-03-14T09:23:46;4.60;99.90
52565;DHT22;38460;53.106;7.004;2023-03-14T09:26:12;4.60;99.90
52565;DHT22;38460;53.106;7.004;2023-03-14T09:28:38;4.70;99.90
52565;DHT22;38460;53.106;7.004;2023-03-14T09:31:08;4.70;99.90
52565;DHT22;38460;53.106;7.004;2023-03-14T09:33:34;4.80;99.90
52565;DHT22;38460;53.106;7.004;2023-03-14T09:36:01;4.90;99.90
52565;DHT22;38460;53.106;7.004;2023-03-14T09:38:27;5.00;99.90
52565;DHT22;38460;53.106;7.004;2023-03-14T09:40:54;5.10;99.90
52565;DHT22;38460;53.106;7.004;2023-03-14T09:43:21;5.20;99.90
52565;DHT22;38460;53.106;7.004;2023-03-14T09:45:49;5.20;99.90
52565;DHT22;38460;53.106;7.004;2023-03-14T09:48:21;5.40;99.90
52565;DHT22;38460;53.106;7.004;2023-03-14T09:50:51;5.40;99.90
52565;DHT22;38460;53.106;7.004;2023-03-14T09:53:20;5.50;99.90
52565;DHT22;38460;53.106;7.004;2023-03-14T09:55:49;5.60;99.90
52565;DHT22;38460;53.106;7.004;2023-03-14T09:58:20;5.60;99.90
52565;DHT22;38460;53.106;7.004;2023-03-14T10:00:46;5.70;99.90
52565;DHT22;38460;53.106;7.004;2023-03-14T10:05:39;5.80;99.90
52565;DHT22;38460;53.106;7.004;2023-03-14T10:08:05;5.80;99.90
52565;DHT22;38460;53.106;7.004;2023-03-14T10:10:32;5.90;99.90
52565;DHT22;38460;53.106;7.004;2023-03-14T10:15:51;5.90;99.90
52565;DHT22;38460;53.106;7.004;2023-03-14T10:18:17;5.70;99.90
52565;DHT22;38460;53.106;7.004;2023-03-14T10:20:48;5.50;99.90
52565;DHT22;38460;53.106;7.004;2023-03-14T10:28:29;5.40;99.90
52565;DHT22;38460;53.106;7.004;2023-03-14T10:30:56;5.40;99.90
52565;DHT22;38460;53.106;7.004;2023-03-14T10:33:28;5.50;99.90
52565;DHT22;38460;53.106;7.004;2023-03-14T10:35:57;5.60;99.90
52565;DHT22;38460;53.106;7.004;2023-03-14T10:38:27;5.60;99.90
52565;DHT22;38460;53.106;7.004;2023-03-14T10:40:57;5.70;99.90
52565;DHT22;38460;53.106;7.004;2023-03-14T10:43:27;5.70;99.90
52565;DHT22;38460;53.106;7.004;2023-03-14T10:46:17;5.70;99.90
52565;DHT22;38460;53.106;7.004;2023-03-14T10:48:44;5.70;99.90
52565;DHT22;38460;53.106;7.004;2023-03-14T10:53:47;5.80;99.90
52565;DHT22;38460;53.106;7.004;2023-03-14T10:56:15;5.90;99.90
52565;DHT22;38460;53.106;7.004;2023-03-14T10:58:44;6.00;99.90
52565;DHT22;38460;53.106;7.004;2023-03-14T11:04:35;6.10;99.90
52565;DHT22;38460;53.106;7.004;2023-03-14T11:09:58;6.10;99.90
52565;DHT22;38460;53.106;7.004;2023-03-14T11:15:20;6.10;99.90
52565;DHT22;38460;53.106;7.004;2023-03-14T11:23:02;6.30;99.90
52565;DHT22;38460;53.106;7.004;2023-03-14T11:30:51;6.30;99.90
52565;DHT22;38460;53.106;7.004;2023-03-14T11:38:58;6.30;99.90
52565;DHT22;38460;53.106;7.004;2023-03-14T11:41:35;6.40;99.90
52565;DHT22;38460;53.106;7.004;2023-03-14T11:44:27;6.50;99.90
52565;DHT22;38460;53.106;7.004;2023-03-14T11:49:50;6.40;99.90
52565;DHT22;38460;53.106;7.004;2023-03-14T11:52:25;6.30;99.90
52565;DHT22;38460;53.106;7.004;2023-03-14T11:55:10;6.30;99.90
52565;DHT22;38460;53.106;7.004;2023-03-14T11:57:38;6.30;99.90
52565;DHT22;38460;53.106;7.004;2023-03-14T12:11:54;6.40;99.90
52565;DHT22;38460;53.106;7.004;2023-03-14T12:14:29;6.30;99.90
52565;DHT22;38460;53.106;7.004;2023-03-14T12:16:58;6.50;99.90
52565;DHT22;38460;53.106;7.004;2023-03-14T12:19:31;6.60;99.70
52565;DHT22;38460;53.106;7.004;2023-03-14T12:21:59;6.80;99.90
52565;DHT22;38460;53.106;7.004;2023-03-14T12:24:30;7.00;99.90
52565;DHT22;38460;53.106;7.004;2023-03-14T12:26:59;7.10;99.80
52565;DHT22;38460;53.106;7.004;2023-03-14T12:29:25;7.10;99.90
52565;DHT22;38460;53.106;7.004;2023-03-14T12:32:24;7.00;99.80
52565;DHT22;38460;53.106;7.004;2023-03-14T12:34:50;6.90;99.00
52565;DHT22;38460;53.106;7.004;2023-03-14T12:40:06;6.90;99.90
52565;DHT22;38460;53.106;7.004;2023-03-14T12:45:33;6.80;99.90
52565;DHT22;38460;53.106;7.004;2023-03-14T12:50:47;6.70;99.90
52565;DHT22;38460;53.106;7.004;2023-03-14T13:02:19;6.30;99.90
52565;DHT22;38460;53.106;7.004;2023-03-14T13:05:02;6.30;99.90
52565;DHT22;38460;53.106;7.004;2023-03-14T13:17:54;6.70;99.90
52565;DHT22;38460;53.106;7.004;2023-03-14T13:20:32;6.70;99.90
52565;DHT22;38460;53.106;7.004;2023-03-14T13:22:59;6.80;99.90
52565;DHT22;38460;53.106;7.004;2023-03-14T13:25:29;6.80;99.90
52565;DHT22;38460;53.106;7.004;2023-03-14T13:27:55;6.90;99.90
52565;DHT22;38460;53.106;7.004;2023-03-14T13:30:27;6.90;99.00
52565;DHT22;38460;53.106;7.004;2023-03-14T13:32:55;6.80;96.10
52565;DHT22;38460;53.106;7.004;2023-03-14T13:35:29;6.80;96.50
52565;DHT22;38460;53.106;7.004;2023-03-14T13:38:03;6.80;97.70
52565;DHT22;38460;53.106;7.004;2023-03-14T13:40:33;7.00;98.00
52565;DHT22;38460;53.106;7.004;2023-03-14T13:43:16;7.10;98.80
52565;DHT22;38460;53.106;7.004;2023-03-14T13:48:14;6.90;96.80
52565;DHT22;38460;53.106;7.004;2023-03-14T13:50:51;6.90;98.30
52565;DHT22;38460;53.106;7.004;2023-03-14T13:53:19;6.80;98.00
52565;DHT22;38460;53.106;7.004;2023-03-14T13:55:44;6.80;98.30
52565;DHT22;38460;53.106;7.004;2023-03-14T13:58:30;6.90;97.70
52565;DHT22;38460;53.106;7.004;2023-03-14T14:01:02;6.90;98.50
52565;DHT22;38460;53.106;7.004;2023-03-14T14:03:38;6.80;97.00
52565;DHT22;38460;53.106;7.004;2023-03-14T14:06:27;6.80;96.70
52565;DHT22;38460;53.106;7.004;2023-03-14T14:09:00;6.80;95.00
52565;DHT22;38460;53.106;7.004;2023-03-14T14:11:48;6.70;94.20
52565;DHT22;38460;53.106;7.004;2023-03-14T14:14:20;6.80;94.70
52565;DHT22;38460;53.106;7.004;2023-03-14T14:16:47;6.80;95.20
52565;DHT22;38460;53.106;7.004;2023-03-14T14:19:15;6.80;97.00
52565;DHT22;38460;53.106;7.004;2023-03-14T14:21:42;6.80;97.20
52565;DHT22;38460;53.106;7.004;2023-03-14T14:24:14;6.90;97.20
52565;DHT22;38460;53.106;7.004;2023-03-14T14:26:51;6.70;97.30
52565;DHT22;38460;53.106;7.004;2023-03-14T14:29:33;6.60;97.60
52565;DHT22;38460;53.106;7.004;2023-03-14T14:34:27;6.50;99.00
52565;DHT22;38460;53.106;7.004;2023-03-14T14:36:53;6.60;99.60
52565;DHT22;38460;53.106;7.004;2023-03-14T14:39:25;6.60;99.40
52565;DHT22;38460;53.106;7.004;2023-03-14T14:41:52;6.50;97.70
52565;DHT22;38460;53.106;7.004;2023-03-14T14:44:25;6.40;97.10
52565;DHT22;38460;53.106;7.004;2023-03-14T14:46:55;6.40;99.10
52565;DHT22;38460;53.106;7.004;2023-03-14T14:49:31;6.40;98.50
52565;DHT22;38460;53.106;7.004;2023-03-14T14:52:05;6.30;99.40
52565;DHT22;38460;53.106;7.004;2023-03-14T14:54:40;6.30;99.90
52565;DHT22;38460;53.106;7.004;2023-03-14T14:57:19;6.10;97.30
52565;DHT22;38460;53.106;7.004;2023-03-14T14:59:48;6.10;98.30
52565;DHT22;38460;53.106;7.004;2023-03-14T15:05:19;6.10;97.80
52565;DHT22;38460;53.106;7.004;2023-03-14T15:07:46;6.00;96.60
52565;DHT22;38460;53.106;7.004;2023-03-14T15:10:18;5.90;97.30
52565;DHT22;38460;53.106;7.004;2023-03-14T15:12:44;5.90;98.40
52565;DHT22;38460;53.106;7.004;2023-03-14T15:15:11;5.90;99.90
52565;DHT22;38460;53.106;7.004;2023-03-14T15:17:37;5.90;99.90
52565;DHT22;38460;53.106;7.004;2023-03-14T15:20:05;5.90;99.90
52565;DHT22;38460;53.106;7.004;2023-03-14T15:22:32;5.80;99.90
52565;DHT22;38460;53.106;7.004;2023-03-14T15:24:58;5.70;99.90
52565;DHT22;38460;53.106;7.004;2023-03-14T15:27:30;5.70;99.90
52565;DHT22;38460;53.106;7.004;2023-03-14T15:29:56;5.70;99.90
52565;DHT22;38460;53.106;7.004;2023-03-14T15:32:22;5.90;99.90
52565;DHT22;38460;53.106;7.004;2023-03-14T15:34:48;5.70;99.90
52565;DHT22;38460;53.106;7.004;2023-03-14T16:16:43;5.50;99.90
52565;DHT22;38460;53.106;7.004;2023-03-14T16:19:09;5.40;99.90
52565;DHT22;38460;53.106;7.004;2023-03-14T16:21:35;5.30;99.90
52565;DHT22;38460;53.106;7.004;2023-03-14T16:24:03;5.30;99.90
52565;DHT22;38460;53.106;7.004;2023-03-14T16:26:31;5.30;99.90
52565;DHT22;38460;53.106;7.004;2023-03-14T16:28:59;5.20;99.90
52565;DHT22;38460;53.106;7.004;2023-03-14T16:31:25;5.20;99.90
52565;DHT22;38460;53.106;7.004;2023-03-14T16:33:51;5.20;99.90
52565;DHT22;38460;53.106;7.004;2023-03-14T16:36:17;5.20;99.90
52565;DHT22;38460;53.106;7.004;2023-03-14T16:38:44;5.20;99.90
52565;DHT22;38460;53.106;7.004;2023-03-14T16:41:18;5.20;99.90
52565;DHT22;38460;53.106;7.004;2023-03-14T16:43:45;5.10;99.90
52565;DHT22;38460;53.106;7.004;2023-03-14T16:46:14;5.10;99.90
52565;DHT22;38460;53.106;7.004;2023-03-14T16:48:41;5.10;99.90
52565;DHT22;38460;53.106;7.004;2023-03-14T16:51:07;5.00;99.90
52565;DHT22;38460;53.106;7.004;2023-03-14T16:53:34;4.90;99.90
52565;DHT22;38460;53.106;7.004;2023-03-14T16:56:00;4.80;99.90
52565;DHT22;38460;53.106;7.004;2023-03-14T16:58:26;4.70;99.90
52565;DHT22;38460;53.106;7.004;2023-03-14T17:00:52;4.60;99.90
52565;DHT22;38460;53.106;7.004;2023-03-14T17:03:19;4.60;99.90
52565;DHT22;38460;53.106;7.004;2023-03-14T17:05:50;4.50;99.90
52565;DHT22;38460;53.106;7.004;2023-03-14T17:08:18;4.40;99.90
52565;DHT22;38460;53.106;7.004;2023-03-14T17:10:44;4.40;99.90
52565;DHT22;38460;53.106;7.004;2023-03-14T17:13:11;4.50;99.90
52565;DHT22;38460;53.106;7.004;2023-03-14T17:15:36;4.30;99.90
52565;DHT22;38460;53.106;7.004;2023-03-14T17:18:03;4.30;99.90
52565;DHT22;38460;53.106;7.004;2023-03-14T17:20:31;4.20;99.90
52565;DHT22;38460;53.106;7.004;2023-03-14T17:22:57;4.20;99.90
52565;DHT22;38460;53.106;7.004;2023-03-14T17:25:23;4.20;99.90
52565;DHT22;38460;53.106;7.004;2023-03-14T17:27:49;4.10;99.90
52565;DHT22;38460;53.106;7.004;2023-03-14T17:30:14;4.00;99.90
52565;DHT22;38460;53.106;7.004;2023-03-14T17:32:41;4.00;99.90
52565;DHT22;38460;53.106;7.004;2023-03-14T17:35:06;3.90;99.90
52565;DHT22;38460;53.106;7.004;2023-03-14T17:37:32;3.90;99.90
52565;DHT22;38460;53.106;7.004;2023-03-14T17:39:58;3.90;99.90
52565;DHT22;38460;53.106;7.004;2023-03-14T17:42:27;3.80;99.90
52565;DHT22;38460;53.106;7.004;2023-03-14T17:44:53;3.70;99.90
52565;DHT22;38460;53.106;7.004;2023-03-14T17:47:19;3.80;99.90
52565;DHT22;38460;53.106;7.004;2023-03-14T17:49:45;3.70;99.90
52565;DHT22;38460;53.106;7.004;2023-03-14T17:52:12;3.70;99.90
52565;DHT22;38460;53.106;7.004;2023-03-14T17:54:38;3.70;99.90
52565;DHT22;38460;53.106;7.004;2023-03-14T17:57:04;3.70;99.90
52565;DHT22;38460;53.106;7.004;2023-03-14T17:59:30;3.60;99.90